sensor_id;sensor_type;location;lat;lon;timestamp;P1;durP1;ratioP1;P2;durP2;ratioP2
22357;SDS011;11346;50.150;8.150;2022-07-29T00:00:12;4.77;;;3.00;;
22357;SDS011;11346;50.150;8.150;2022-07-29T00:02:40;3.80;;;2.63;;
22357;SDS011;11346;50.150;8.150;2022-07-29T00:05:07;3.50;;;2.80;;
22357;SDS011;11346;50.150;8.150;2022-07-29T00:07:35;6.90;;;2.60;;
22357;SDS011;11346;50.150;8.150;2022-07-29T00:10:02;5.10;;;2.80;;
22357;SDS011;11346;50.150;8.150;2022-07-29T00:12:29;4.53;;;3.03;;
22357;SDS011;11346;50.150;8.150;2022-07-29T00:14:56;3.90;;;2.80;;
22357;SDS011;11346;50.150;8.150;2022-07-29T00:17:25;3.73;;;2.70;;
22357;SDS011;11346;50.150;8.150;2022-07-29T00:19:52;3.93;;;2.50;;
22357;SDS011;11346;50.150;8.150;2022-07-29T00:22:19;4.27;;;2.70;;
22357;SDS011;11346;50.150;8.150;2022-07-29T00:24:47;7.63;;;2.70;;
22357;SDS011;11346;50.150;8.150;2022-07-29T00:27:14;3.43;;;2.90;;
22357;SDS011;11346;50.150;8.150;2022-07-29T00:29:41;3.97;;;3.30;;
22357;SDS011;11346;50.150;8.150;2022-07-29T00:32:08;6.07;;;3.00;;
22357;SDS011;11346;50.150;8.150;2022-07-29T00:34:37;8.00;;;3.10;;
22357;SDS011;11346;50.150;8.150;2022-07-29T00:37:22;5.83;;;2.90;;
22357;SDS011;11346;50.150;8.150;2022-07-29T00:39:49;3.20;;;3.00;;
22357;SDS011;11346;50.150;8.150;2022-07-29T00:42:16;4.57;;;3.10;;
22357;SDS011;11346;50.150;8.150;2022-07-29T00:44:43;3.77;;;2.87;;
22357;SDS011;11346;50.150;8.150;2022-07-29T00:47:10;5.90;;;3.03;;
22357;SDS011;11346;50.150;8.150;2022-07-29T00:49:39;3.53;;;3.00;;
22357;SDS011;11346;50.150;8.150;2022-07-29T00:52:07;4.27;;;3.33;;
22357;SDS011;11346;50.150;8.150;2022-07-29T00:54:35;5.30;;;3.27;;
22357;SDS011;11346;50.150;8.150;2022-07-29T00:57:04;5.23;;;3.50;;
22357;SDS011;11346;50.150;8.150;2022-07-29T00:59:32;8.53;;;3.50;;
22357;SDS011;11346;50.150;8.150;2022-07-29T01:01:59;5.70;;;3.00;;
22357;SDS011;11346;50.150;8.150;2022-07-29T01:04:26;9.03;;;3.13;;
22357;SDS011;11346;50.150;8.150;2022-07-29T01:06:56;4.70;;;3.20;;
22357;SDS011;11346;50.150;8.150;2022-07-29T01:09:23;5.03;;;3.30;;
22357;SDS011;11346;50.150;8.150;2022-07-29T01:11:50;11.77;;;3.57;;
22357;SDS011;11346;50.150;8.150;2022-07-29T01:14:17;5.33;;;3.30;;
22357;SDS011;11346;50.150;8.150;2022-07-29T01:16:46;5.87;;;3.20;;
22357;SDS011;11346;50.150;8.150;2022-07-29T01:19:18;3.33;;;3.00;;
22357;SDS011;11346;50.150;8.150;2022-07-29T01:21:51;8.80;;;3.20;;
22357;SDS011;11346;50.150;8.150;2022-07-29T01:24:43;4.70;;;3.20;;
22357;SDS011;11346;50.150;8.150;2022-07-29T01:27:20;4.17;;;3.30;;
22357;SDS011;11346;50.150;8.150;2022-07-29T01:29:53;6.73;;;3.30;;
22357;SDS011;11346;50.150;8.150;2022-07-29T01:32:23;3.57;;;2.70;;
22357;SDS011;11346;50.150;8.150;2022-07-29T01:34:53;4.57;;;2.83;;
22357;SDS011;11346;50.150;8.150;2022-07-29T01:37:22;5.17;;;3.00;;
22357;SDS011;11346;50.150;8.150;2022-07-29T01:39:51;3.40;;;2.93;;
22357;SDS011;11346;50.150;8.150;2022-07-29T01:42:20;4.50;;;3.13;;
22357;SDS011;11346;50.150;8.150;2022-07-29T01:44:50;4.17;;;3.13;;
22357;SDS011;11346;50.150;8.150;2022-07-29T01:47:23;5.73;;;3.37;;
22357;SDS011;11346;50.150;8.150;2022-07-29T01:49:52;6.57;;;3.43;;
22357;SDS011;11346;50.150;8.150;2022-07-29T01:52:23;4.17;;;3.50;;
22357;SDS011;11346;50.150;8.150;2022-07-29T01:54:52;8.50;;;3.60;;
22357;SDS011;11346;50.150;8.150;2022-07-29T01:57:21;7.97;;;3.63;;
22357;SDS011;11346;50.150;8.150;2022-07-29T01:59:51;4.30;;;3.20;;
22357;SDS011;11346;50.150;8.150;2022-07-29T02:02:19;6.27;;;3.83;;
22357;SDS011;11346;50.150;8.150;2022-07-29T02:04:48;9.37;;;3.27;;
22357;SDS011;11346;50.150;8.150;2022-07-29T02:07:17;3.97;;;3.23;;
22357;SDS011;11346;50.150;8.150;2022-07-29T02:09:44;5.93;;;3.20;;
22357;SDS011;11346;50.150;8.150;2022-07-29T02:12:13;5.37;;;3.60;;
22357;SDS011;11346;50.150;8.150;2022-07-29T02:14:42;4.20;;;3.30;;
22357;SDS011;11346;50.150;8.150;2022-07-29T02:17:11;5.90;;;3.07;;
22357;SDS011;11346;50.150;8.150;2022-07-29T02:19:39;4.27;;;3.40;;
22357;SDS011;11346;50.150;8.150;2022-07-29T02:22:09;5.03;;;3.10;;
22357;SDS011;11346;50.150;8.150;2022-07-29T02:24:37;5.90;;;3.20;;
22357;SDS011;11346;50.150;8.150;2022-07-29T02:27:05;9.00;;;3.70;;
22357;SDS011;11346;50.150;8.150;2022-07-29T02:29:34;4.30;;;3.57;;
22357;SDS011;11346;50.150;8.150;2022-07-29T02:32:01;4.00;;;3.60;;
22357;SDS011;11346;50.150;8.150;2022-07-29T02:34:29;6.80;;;3.80;;
22357;SDS011;11346;50.150;8.150;2022-07-29T02:36:57;4.67;;;3.67;;
22357;SDS011;11346;50.150;8.150;2022-07-29T02:39:26;5.70;;;3.60;;
22357;SDS011;11346;50.150;8.150;2022-07-29T02:41:55;5.43;;;3.43;;
22357;SDS011;11346;50.150;8.150;2022-07-29T02:44:24;5.30;;;3.47;;
22357;SDS011;11346;50.150;8.150;2022-07-29T02:46:53;8.33;;;3.23;;
22357;SDS011;11346;50.150;8.150;2022-07-29T02:49:26;6.27;;;3.23;;
22357;SDS011;11346;50.150;8.150;2022-07-29T02:51:57;5.53;;;3.07;;
22357;SDS011;11346;50.150;8.150;2022-07-29T02:54:28;6.00;;;3.63;;
22357;SDS011;11346;50.150;8.150;2022-07-29T02:56:58;8.07;;;3.47;;
22357;SDS011;11346;50.150;8.150;2022-07-29T02:59:27;4.80;;;3.20;;
22357;SDS011;11346;50.150;8.150;2022-07-29T03:01:57;3.60;;;3.03;;
22357;SDS011;11346;50.150;8.150;2022-07-29T03:07:29;4.30;;;3.40;;
22357;SDS011;11346;50.150;8.150;2022-07-29T03:10:00;3.33;;;3.03;;
22357;SDS011;11346;50.150;8.150;2022-07-29T03:12:28;6.70;;;3.60;;
22357;SDS011;11346;50.150;8.150;2022-07-29T03:14:55;9.60;;;3.53;;
22357;SDS011;11346;50.150;8.150;2022-07-29T03:17:23;7.33;;;3.30;;
22357;SDS011;11346;50.150;8.150;2022-07-29T03:19:50;4.90;;;3.10;;
22357;SDS011;11346;50.150;8.150;2022-07-29T03:22:17;6.17;;;3.20;;
22357;SDS011;11346;50.150;8.150;2022-07-29T03:24:45;5.23;;;3.53;;
22357;SDS011;11346;50.150;8.150;2022-07-29T03:27:15;5.67;;;3.50;;
22357;SDS011;11346;50.150;8.150;2022-07-29T03:29:42;5.77;;;3.47;;
22357;SDS011;11346;50.150;8.150;2022-07-29T03:32:09;5.53;;;3.27;;
22357;SDS011;11346;50.150;8.150;2022-07-29T03:34:37;5.83;;;3.50;;
22357;SDS011;11346;50.150;8.150;2022-07-29T03:37:05;3.53;;;3.20;;
22357;SDS011;11346;50.150;8.150;2022-07-29T03:39:33;6.93;;;3.40;;
22357;SDS011;11346;50.150;8.150;2022-07-29T03:42:01;6.00;;;3.43;;
22357;SDS011;11346;50.150;8.150;2022-07-29T03:44:30;4.57;;;3.70;;
22357;SDS011;11346;50.150;8.150;2022-07-29T03:46:57;5.00;;;3.60;;
22357;SDS011;11346;50.150;8.150;2022-07-29T03:49:26;3.63;;;3.17;;
22357;SDS011;11346;50.150;8.150;2022-07-29T03:51:54;5.33;;;3.37;;
22357;SDS011;11346;50.150;8.150;2022-07-29T03:54:22;7.77;;;4.00;;
22357;SDS011;11346;50.150;8.150;2022-07-29T03:56:49;6.13;;;3.83;;
22357;SDS011;11346;50.150;8.150;2022-07-29T03:59:17;7.43;;;5.00;;
22357;SDS011;11346;50.150;8.150;2022-07-29T04:01:46;5.43;;;3.80;;
22357;SDS011;11346;50.150;8.150;2022-07-29T04:04:13;6.23;;;3.90;;
22357;SDS011;11346;50.150;8.150;2022-07-29T04:06:41;4.00;;;3.60;;
22357;SDS011;11346;50.150;8.150;2022-07-29T04:09:08;5.87;;;3.67;;
22357;SDS011;11346;50.150;8.150;2022-07-29T04:11:36;6.30;;;3.70;;
22357;SDS011;11346;50.150;8.150;2022-07-29T04:14:03;4.90;;;3.90;;
22357;SDS011;11346;50.150;8.150;2022-07-29T04:16:30;4.07;;;3.50;;
22357;SDS011;11346;50.150;8.150;2022-07-29T04:18:59;4.07;;;3.50;;
22357;SDS011;11346;50.150;8.150;2022-07-29T04:21:26;13.70;;;3.90;;
22357;SDS011;11346;50.150;8.150;2022-07-29T04:23:53;5.40;;;3.73;;
22357;SDS011;11346;50.150;8.150;2022-07-29T04:26:20;7.90;;;3.87;;
22357;SDS011;11346;50.150;8.150;2022-07-29T04:28:47;5.80;;;3.73;;
22357;SDS011;11346;50.150;8.150;2022-07-29T04:31:15;5.47;;;3.70;;
22357;SDS011;11346;50.150;8.150;2022-07-29T04:33:44;5.70;;;3.80;;
22357;SDS011;11346;50.150;8.150;2022-07-29T04:36:13;7.30;;;3.90;;
22357;SDS011;11346;50.150;8.150;2022-07-29T04:38:40;5.40;;;3.90;;
22357;SDS011;11346;50.150;8.150;2022-07-29T04:41:07;7.87;;;3.80;;
22357;SDS011;11346;50.150;8.150;2022-07-29T04:43:34;5.87;;;3.70;;
22357;SDS011;11346;50.150;8.150;2022-07-29T04:46:01;4.07;;;3.60;;
22357;SDS011;11346;50.150;8.150;2022-07-29T04:48:29;5.03;;;3.60;;
22357;SDS011;11346;50.150;8.150;2022-07-29T04:50:56;8.13;;;3.80;;
22357;SDS011;11346;50.150;8.150;2022-07-29T04:53:27;6.53;;;3.20;;
22357;SDS011;11346;50.150;8.150;2022-07-29T04:55:55;8.27;;;3.63;;
22357;SDS011;11346;50.150;8.150;2022-07-29T04:58:22;11.70;;;3.73;;
22357;SDS011;11346;50.150;8.150;2022-07-29T05:00:49;4.00;;;3.20;;
22357;SDS011;11346;50.150;8.150;2022-07-29T05:03:16;6.33;;;3.40;;
22357;SDS011;11346;50.150;8.150;2022-07-29T05:05:44;8.77;;;3.40;;
22357;SDS011;11346;50.150;8.150;2022-07-29T05:08:11;6.53;;;4.27;;
22357;SDS011;11346;50.150;8.150;2022-07-29T05:10:39;5.57;;;4.07;;
22357;SDS011;11346;50.150;8.150;2022-07-29T05:13:07;4.27;;;3.87;;
22357;SDS011;11346;50.150;8.150;2022-07-29T05:15:34;4.60;;;4.00;;
22357;SDS011;11346;50.150;8.150;2022-07-29T05:18:05;5.37;;;3.80;;
22357;SDS011;11346;50.150;8.150;2022-07-29T05:20:32;5.90;;;4.10;;
22357;SDS011;11346;50.150;8.150;2022-07-29T05:23:00;4.13;;;3.70;;
22357;SDS011;11346;50.150;8.150;2022-07-29T05:25:28;7.90;;;3.70;;
22357;SDS011;11346;50.150;8.150;2022-07-29T05:27:57;5.07;;;3.70;;
22357;SDS011;11346;50.150;8.150;2022-07-29T05:30:24;7.47;;;4.07;;
22357;SDS011;11346;50.150;8.150;2022-07-29T05:32:52;4.63;;;3.90;;
22357;SDS011;11346;50.150;8.150;2022-07-29T05:35:19;5.07;;;3.87;;
22357;SDS011;11346;50.150;8.150;2022-07-29T05:37:46;7.00;;;4.00;;
22357;SDS011;11346;50.150;8.150;2022-07-29T05:40:15;4.73;;;4.00;;
22357;SDS011;11346;50.150;8.150;2022-07-29T05:42:43;5.87;;;4.13;;
22357;SDS011;11346;50.150;8.150;2022-07-29T05:45:11;5.37;;;4.10;;
22357;SDS011;11346;50.150;8.150;2022-07-29T05:47:40;5.90;;;3.90;;
22357;SDS011;11346;50.150;8.150;2022-07-29T05:50:07;7.67;;;3.70;;
22357;SDS011;11346;50.150;8.150;2022-07-29T05:52:35;3.83;;;3.20;;
22357;SDS011;11346;50.150;8.150;2022-07-29T05:55:02;7.43;;;3.33;;
22357;SDS011;11346;50.150;8.150;2022-07-29T05:57:30;4.47;;;3.50;;
22357;SDS011;11346;50.150;8.150;2022-07-29T05:59:58;4.27;;;3.80;;
22357;SDS011;11346;50.150;8.150;2022-07-29T06:02:26;5.97;;;3.97;;
22357;SDS011;11346;50.150;8.150;2022-07-29T06:04:54;8.03;;;4.30;;
22357;SDS011;11346;50.150;8.150;2022-07-29T06:07:21;6.40;;;4.03;;
22357;SDS011;11346;50.150;8.150;2022-07-29T06:09:48;4.97;;;3.70;;
22357;SDS011;11346;50.150;8.150;2022-07-29T06:12:16;9.07;;;3.90;;
22357;SDS011;11346;50.150;8.150;2022-07-29T06:14:43;4.47;;;3.90;;
22357;SDS011;11346;50.150;8.150;2022-07-29T06:17:10;4.57;;;3.37;;
22357;SDS011;11346;50.150;8.150;2022-07-29T06:19:38;6.23;;;3.90;;
22357;SDS011;11346;50.150;8.150;2022-07-29T06:22:06;5.80;;;3.70;;
22357;SDS011;11346;50.150;8.150;2022-07-29T06:24:33;5.40;;;3.53;;
22357;SDS011;11346;50.150;8.150;2022-07-29T06:27:02;6.13;;;3.40;;
22357;SDS011;11346;50.150;8.150;2022-07-29T06:29:29;7.57;;;3.43;;
22357;SDS011;11346;50.150;8.150;2022-07-29T06:31:57;3.90;;;3.20;;
22357;SDS011;11346;50.150;8.150;2022-07-29T06:34:24;5.87;;;3.00;;
22357;SDS011;11346;50.150;8.150;2022-07-29T06:36:52;6.10;;;3.30;;
22357;SDS011;11346;50.150;8.150;2022-07-29T06:39:19;4.20;;;3.30;;
22357;SDS011;11346;50.150;8.150;2022-07-29T06:41:49;3.83;;;3.40;;
22357;SDS011;11346;50.150;8.150;2022-07-29T06:44:16;9.10;;;3.70;;
22357;SDS011;11346;50.150;8.150;2022-07-29T06:46:43;4.43;;;3.10;;
22357;SDS011;11346;50.150;8.150;2022-07-29T06:49:12;8.60;;;3.20;;
22357;SDS011;11346;50.150;8.150;2022-07-29T06:51:39;5.77;;;3.07;;
22357;SDS011;11346;50.150;8.150;2022-07-29T06:54:07;7.67;;;3.13;;
22357;SDS011;11346;50.150;8.150;2022-07-29T06:56:35;3.90;;;2.90;;
22357;SDS011;11346;50.150;8.150;2022-07-29T06:59:02;6.57;;;3.10;;
22357;SDS011;11346;50.150;8.150;2022-07-29T07:01:35;4.83;;;3.07;;
22357;SDS011;11346;50.150;8.150;2022-07-29T07:04:04;7.17;;;2.80;;
22357;SDS011;11346;50.150;8.150;2022-07-29T07:06:33;4.23;;;2.70;;
22357;SDS011;11346;50.150;8.150;2022-07-29T07:09:00;12.07;;;2.97;;
22357;SDS011;11346;50.150;8.150;2022-07-29T07:11:29;6.43;;;2.97;;
22357;SDS011;11346;50.150;8.150;2022-07-29T07:13:58;5.73;;;2.87;;
22357;SDS011;11346;50.150;8.150;2022-07-29T07:16:28;9.87;;;2.80;;
22357;SDS011;11346;50.150;8.150;2022-07-29T07:18:56;6.07;;;3.00;;
22357;SDS011;11346;50.150;8.150;2022-07-29T07:21:23;5.57;;;2.93;;
22357;SDS011;11346;50.150;8.150;2022-07-29T07:23:50;6.00;;;2.73;;
22357;SDS011;11346;50.150;8.150;2022-07-29T07:26:17;3.97;;;2.50;;
22357;SDS011;11346;50.150;8.150;2022-07-29T07:28:46;9.13;;;2.90;;
22357;SDS011;11346;50.150;8.150;2022-07-29T07:31:13;5.17;;;2.70;;
22357;SDS011;11346;50.150;8.150;2022-07-29T07:33:40;4.87;;;2.83;;
22357;SDS011;11346;50.150;8.150;2022-07-29T07:36:07;4.63;;;3.13;;
22357;SDS011;11346;50.150;8.150;2022-07-29T07:38:35;8.47;;;2.53;;
22357;SDS011;11346;50.150;8.150;2022-07-29T07:41:02;7.03;;;2.70;;
22357;SDS011;11346;50.150;8.150;2022-07-29T07:43:29;7.13;;;2.87;;
22357;SDS011;11346;50.150;8.150;2022-07-29T07:45:58;7.63;;;3.03;;
22357;SDS011;11346;50.150;8.150;2022-07-29T07:48:25;2.77;;;2.57;;
22357;SDS011;11346;50.150;8.150;2022-07-29T07:50:54;9.03;;;3.07;;
22357;SDS011;11346;50.150;8.150;2022-07-29T07:53:21;5.27;;;2.83;;
22357;SDS011;11346;50.150;8.150;2022-07-29T07:55:48;6.37;;;2.97;;
22357;SDS011;11346;50.150;8.150;2022-07-29T07:58:15;3.33;;;3.03;;
22357;SDS011;11346;50.150;8.150;2022-07-29T08:00:44;8.40;;;3.17;;
22357;SDS011;11346;50.150;8.150;2022-07-29T08:03:16;4.43;;;2.63;;
22357;SDS011;11346;50.150;8.150;2022-07-29T08:05:43;5.30;;;2.80;;
22357;SDS011;11346;50.150;8.150;2022-07-29T08:08:14;5.07;;;3.10;;
22357;SDS011;11346;50.150;8.150;2022-07-29T08:10:41;6.37;;;2.93;;
22357;SDS011;11346;50.150;8.150;2022-07-29T08:13:24;5.83;;;2.70;;
22357;SDS011;11346;50.150;8.150;2022-07-29T08:15:53;5.90;;;3.00;;
22357;SDS011;11346;50.150;8.150;2022-07-29T08:18:28;5.67;;;2.90;;
22357;SDS011;11346;50.150;8.150;2022-07-29T08:20:57;4.13;;;2.87;;
22357;SDS011;11346;50.150;8.150;2022-07-29T08:23:24;4.70;;;3.33;;
22357;SDS011;11346;50.150;8.150;2022-07-29T08:25:52;8.80;;;2.93;;
22357;SDS011;11346;50.150;8.150;2022-07-29T08:28:19;5.57;;;3.00;;
22357;SDS011;11346;50.150;8.150;2022-07-29T08:30:46;8.10;;;3.03;;
22357;SDS011;11346;50.150;8.150;2022-07-29T08:33:13;4.40;;;2.87;;
22357;SDS011;11346;50.150;8.150;2022-07-29T08:35:41;5.53;;;2.63;;
22357;SDS011;11346;50.150;8.150;2022-07-29T08:38:11;5.03;;;3.10;;
22357;SDS011;11346;50.150;8.150;2022-07-29T08:40:38;7.87;;;3.07;;
22357;SDS011;11346;50.150;8.150;2022-07-29T08:43:06;4.17;;;3.00;;
22357;SDS011;11346;50.150;8.150;2022-07-29T08:45:41;5.20;;;3.00;;
22357;SDS011;11346;50.150;8.150;2022-07-29T08:48:09;5.67;;;3.40;;
22357;SDS011;11346;50.150;8.150;2022-07-29T08:50:36;4.93;;;3.33;;
22357;SDS011;11346;50.150;8.150;2022-07-29T08:53:06;8.37;;;3.20;;
22357;SDS011;11346;50.150;8.150;2022-07-29T08:55:34;7.70;;;2.97;;
22357;SDS011;11346;50.150;8.150;2022-07-29T08:58:01;6.50;;;3.00;;
22357;SDS011;11346;50.150;8.150;2022-07-29T09:00:29;15.23;;;3.70;;
22357;SDS011;11346;50.150;8.150;2022-07-29T09:02:56;3.57;;;2.80;;
22357;SDS011;11346;50.150;8.150;2022-07-29T09:05:24;3.63;;;2.80;;
22357;SDS011;11346;50.150;8.150;2022-07-29T09:07:52;6.90;;;3.10;;
22357;SDS011;11346;50.150;8.150;2022-07-29T09:10:23;5.97;;;2.70;;
22357;SDS011;11346;50.150;8.150;2022-07-29T09:15:53;3.57;;;2.87;;
22357;SDS011;11346;50.150;8.150;2022-07-29T09:18:33;10.63;;;3.00;;
22357;SDS011;11346;50.150;8.150;2022-07-29T09:21:00;4.07;;;2.90;;
22357;SDS011;11346;50.150;8.150;2022-07-29T09:23:59;5.87;;;3.20;;
22357;SDS011;11346;50.150;8.150;2022-07-29T09:26:28;8.83;;;3.47;;
22357;SDS011;11346;50.150;8.150;2022-07-29T09:28:56;5.40;;;3.20;;
22357;SDS011;11346;50.150;8.150;2022-07-29T09:31:26;5.97;;;3.20;;
22357;SDS011;11346;50.150;8.150;2022-07-29T09:33:58;7.00;;;3.30;;
22357;SDS011;11346;50.150;8.150;2022-07-29T09:36:26;5.83;;;3.40;;
22357;SDS011;11346;50.150;8.150;2022-07-29T09:38:56;7.60;;;4.07;;
22357;SDS011;11346;50.150;8.150;2022-07-29T09:41:25;18.40;;;8.87;;
22357;SDS011;11346;50.150;8.150;2022-07-29T09:43:57;4.80;;;3.00;;
22357;SDS011;11346;50.150;8.150;2022-07-29T09:46:24;5.40;;;3.10;;
22357;SDS011;11346;50.150;8.150;2022-07-29T09:49:07;4.33;;;3.33;;
22357;SDS011;11346;50.150;8.150;2022-07-29T09:51:34;9.07;;;4.53;;
22357;SDS011;11346;50.150;8.150;2022-07-29T09:54:02;5.73;;;3.00;;
22357;SDS011;11346;50.150;8.150;2022-07-29T09:56:38;5.83;;;3.27;;
22357;SDS011;11346;50.150;8.150;2022-07-29T09:59:07;5.70;;;3.47;;
22357;SDS011;11346;50.150;8.150;2022-07-29T10:01:36;8.57;;;3.40;;
22357;SDS011;11346;50.150;8.150;2022-07-29T10:04:03;7.27;;;2.97;;
22357;SDS011;11346;50.150;8.150;2022-07-29T10:06:30;4.27;;;3.20;;
22357;SDS011;11346;50.150;8.150;2022-07-29T10:11:42;6.20;;;3.50;;
22357;SDS011;11346;50.150;8.150;2022-07-29T10:14:30;8.77;;;3.37;;
22357;SDS011;11346;50.150;8.150;2022-07-29T10:16:58;4.00;;;3.00;;
22357;SDS011;11346;50.150;8.150;2022-07-29T10:19:26;4.27;;;3.27;;
22357;SDS011;11346;50.150;8.150;2022-07-29T10:21:55;4.77;;;3.00;;
22357;SDS011;11346;50.150;8.150;2022-07-29T10:24:24;4.27;;;3.03;;
22357;SDS011;11346;50.150;8.150;2022-07-29T10:26:51;5.00;;;3.30;;
22357;SDS011;11346;50.150;8.150;2022-07-29T10:29:28;6.53;;;3.10;;
22357;SDS011;11346;50.150;8.150;2022-07-29T10:32:19;5.27;;;3.20;;
22357;SDS011;11346;50.150;8.150;2022-07-29T10:34:57;6.47;;;3.20;;
22357;SDS011;11346;50.150;8.150;2022-07-29T10:37:33;4.97;;;3.17;;
22357;SDS011;11346;50.150;8.150;2022-07-29T10:40:05;6.70;;;3.03;;
22357;SDS011;11346;50.150;8.150;2022-07-29T10:42:50;4.43;;;3.37;;
22357;SDS011;11346;50.150;8.150;2022-07-29T10:45:22;4.00;;;2.80;;
22357;SDS011;11346;50.150;8.150;2022-07-29T10:47:51;2.90;;;2.60;;
22357;SDS011;11346;50.150;8.150;2022-07-29T10:50:34;6.40;;;2.90;;
22357;SDS011;11346;50.150;8.150;2022-07-29T10:53:18;4.07;;;3.20;;
22357;SDS011;11346;50.150;8.150;2022-07-29T10:55:45;4.27;;;2.90;;
22357;SDS011;11346;50.150;8.150;2022-07-29T10:58:15;3.37;;;2.80;;
22357;SDS011;11346;50.150;8.150;2022-07-29T11:00:43;3.37;;;2.50;;
22357;SDS011;11346;50.150;8.150;2022-07-29T11:05:55;4.50;;;2.63;;
22357;SDS011;11346;50.150;8.150;2022-07-29T11:08:23;3.47;;;2.90;;
22357;SDS011;11346;50.150;8.150;2022-07-29T11:10:52;5.93;;;2.87;;
22357;SDS011;11346;50.150;8.150;2022-07-29T11:16:05;6.93;;;3.00;;
22357;SDS011;11346;50.150;8.150;2022-07-29T11:18:32;3.73;;;3.03;;
22357;SDS011;11346;50.150;8.150;2022-07-29T11:21:01;4.70;;;2.40;;
22357;SDS011;11346;50.150;8.150;2022-07-29T11:23:29;5.03;;;2.83;;
22357;SDS011;11346;50.150;8.150;2022-07-29T11:28:56;5.57;;;2.33;;
22357;SDS011;11346;50.150;8.150;2022-07-29T11:31:37;3.33;;;2.30;;
22357;SDS011;11346;50.150;8.150;2022-07-29T11:34:19;3.97;;;2.63;;
22357;SDS011;11346;50.150;8.150;2022-07-29T11:39:34;3.47;;;2.70;;
22357;SDS011;11346;50.150;8.150;2022-07-29T11:44:53;7.10;;;2.50;;
22357;SDS011;11346;50.150;8.150;2022-07-29T11:47:21;4.60;;;2.63;;
22357;SDS011;11346;50.150;8.150;2022-07-29T11:49:49;3.10;;;2.80;;
22357;SDS011;11346;50.150;8.150;2022-07-29T11:52:17;4.20;;;2.70;;
22357;SDS011;11346;50.150;8.150;2022-07-29T11:54:47;3.50;;;2.80;;
22357;SDS011;11346;50.150;8.150;2022-07-29T11:57:14;4.77;;;3.10;;
22357;SDS011;11346;50.150;8.150;2022-07-29T11:59:43;3.83;;;2.53;;
22357;SDS011;11346;50.150;8.150;2022-07-29T12:02:11;4.57;;;2.80;;
22357;SDS011;11346;50.150;8.150;2022-07-29T12:04:47;4.30;;;2.70;;
22357;SDS011;11346;50.150;8.150;2022-07-29T12:07:15;3.77;;;2.67;;
22357;SDS011;11346;50.150;8.150;2022-07-29T12:10:02;6.90;;;3.10;;
22357;SDS011;11346;50.150;8.150;2022-07-29T12:12:30;4.33;;;2.87;;
22357;SDS011;11346;50.150;8.150;2022-07-29T12:14:58;3.57;;;3.03;;
22357;SDS011;11346;50.150;8.150;2022-07-29T12:17:25;5.60;;;2.80;;
22357;SDS011;11346;50.150;8.150;2022-07-29T12:19:53;3.50;;;3.00;;
22357;SDS011;11346;50.150;8.150;2022-07-29T12:22:26;5.80;;;3.17;;
22357;SDS011;11346;50.150;8.150;2022-07-29T12:24:54;3.43;;;2.90;;
22357;SDS011;11346;50.150;8.150;2022-07-29T12:27:22;3.83;;;3.03;;
22357;SDS011;11346;50.150;8.150;2022-07-29T12:29:56;15.50;;;3.90;;
22357;SDS011;11346;50.150;8.150;2022-07-29T12:32:30;49.33;;;11.00;;
22357;SDS011;11346;50.150;8.150;2022-07-29T12:34:57;16.97;;;5.80;;
22357;SDS011;11346;50.150;8.150;2022-07-29T12:37:25;16.80;;;5.27;;
22357;SDS011;11346;50.150;8.150;2022-07-29T12:39:52;10.83;;;4.80;;
22357;SDS011;11346;50.150;8.150;2022-07-29T12:42:19;9.07;;;4.50;;
22357;SDS011;11346;50.150;8.150;2022-07-29T12:44:48;14.97;;;5.80;;
22357;SDS011;11346;50.150;8.150;2022-07-29T12:47:16;17.30;;;5.63;;
22357;SDS011;11346;50.150;8.150;2022-07-29T12:49:44;10.53;;;5.27;;
22357;SDS011;11346;50.150;8.150;2022-07-29T12:52:24;17.57;;;5.60;;
22357;SDS011;11346;50.150;8.150;2022-07-29T12:54:51;47.27;;;7.43;;
22357;SDS011;11346;50.150;8.150;2022-07-29T12:57:18;37.13;;;6.60;;
22357;SDS011;11346;50.150;8.150;2022-07-29T12:59:59;14.43;;;5.30;;
22357;SDS011;11346;50.150;8.150;2022-07-29T13:02:26;13.23;;;5.10;;
22357;SDS011;11346;50.150;8.150;2022-07-29T13:04:57;18.93;;;7.73;;
22357;SDS011;11346;50.150;8.150;2022-07-29T13:07:24;23.87;;;7.77;;
22357;SDS011;11346;50.150;8.150;2022-07-29T13:09:52;20.03;;;8.60;;
22357;SDS011;11346;50.150;8.150;2022-07-29T13:12:20;11.87;;;5.57;;
22357;SDS011;11346;50.150;8.150;2022-07-29T13:14:48;24.57;;;10.00;;
22357;SDS011;11346;50.150;8.150;2022-07-29T13:17:18;47.47;;;10.53;;
22357;SDS011;11346;50.150;8.150;2022-07-29T13:19:47;16.17;;;7.67;;
22357;SDS011;11346;50.150;8.150;2022-07-29T13:22:15;15.57;;;7.33;;
22357;SDS011;11346;50.150;8.150;2022-07-29T13:24:47;24.07;;;9.17;;
22357;SDS011;11346;50.150;8.150;2022-07-29T13:27:14;29.77;;;9.77;;
22357;SDS011;11346;50.150;8.150;2022-07-29T13:29:42;15.87;;;7.83;;
22357;SDS011;11346;50.150;8.150;2022-07-29T13:32:09;20.67;;;8.70;;
22357;SDS011;11346;50.150;8.150;2022-07-29T13:34:38;17.23;;;8.03;;
22357;SDS011;11346;50.150;8.150;2022-07-29T13:37:05;11.53;;;7.70;;
22357;SDS011;11346;50.150;8.150;2022-07-29T13:39:32;11.03;;;7.07;;
22357;SDS011;11346;50.150;8.150;2022-07-29T13:42:00;8.60;;;6.10;;
22357;SDS011;11346;50.150;8.150;2022-07-29T13:44:27;10.53;;;6.50;;
22357;SDS011;11346;50.150;8.150;2022-07-29T13:46:55;11.27;;;6.67;;
22357;SDS011;11346;50.150;8.150;2022-07-29T13:49:23;12.47;;;7.83;;
22357;SDS011;11346;50.150;8.150;2022-07-29T13:51:52;8.43;;;7.17;;
22357;SDS011;11346;50.150;8.150;2022-07-29T13:54:19;8.90;;;6.83;;
22357;SDS011;11346;50.150;8.150;2022-07-29T13:56:46;9.60;;;6.33;;
22357;SDS011;11346;50.150;8.150;2022-07-29T13:59:14;18.17;;;7.13;;
22357;SDS011;11346;50.150;8.150;2022-07-29T14:01:41;11.70;;;7.83;;
22357;SDS011;11346;50.150;8.150;2022-07-29T14:04:08;11.60;;;8.03;;
22357;SDS011;11346;50.150;8.150;2022-07-29T14:06:35;13.00;;;8.03;;
22357;SDS011;11346;50.150;8.150;2022-07-29T14:09:04;7.53;;;6.40;;
22357;SDS011;11346;50.150;8.150;2022-07-29T14:11:33;8.40;;;6.60;;
22357;SDS011;11346;50.150;8.150;2022-07-29T14:14:00;9.07;;;6.40;;
22357;SDS011;11346;50.150;8.150;2022-07-29T14:16:27;7.83;;;5.60;;
22357;SDS011;11346;50.150;8.150;2022-07-29T14:18:54;7.67;;;6.10;;
22357;SDS011;11346;50.150;8.150;2022-07-29T14:21:22;9.27;;;6.30;;
22357;SDS011;11346;50.150;8.150;2022-07-29T14:23:49;9.60;;;6.20;;
22357;SDS011;11346;50.150;8.150;2022-07-29T14:26:18;9.40;;;5.67;;
22357;SDS011;11346;50.150;8.150;2022-07-29T14:28:45;6.20;;;5.20;;
22357;SDS011;11346;50.150;8.150;2022-07-29T14:31:12;5.30;;;4.80;;
22357;SDS011;11346;50.150;8.150;2022-07-29T14:33:39;8.00;;;4.93;;
22357;SDS011;11346;50.150;8.150;2022-07-29T14:36:07;10.37;;;6.23;;
22357;SDS011;11346;50.150;8.150;2022-07-29T14:38:35;6.53;;;5.13;;
22357;SDS011;11346;50.150;8.150;2022-07-29T14:41:03;8.20;;;4.77;;
22357;SDS011;11346;50.150;8.150;2022-07-29T14:43:32;6.17;;;5.00;;
22357;SDS011;11346;50.150;8.150;2022-07-29T14:46:00;8.33;;;4.83;;
22357;SDS011;11346;50.150;8.150;2022-07-29T14:48:27;11.97;;;5.33;;
22357;SDS011;11346;50.150;8.150;2022-07-29T14:50:54;6.10;;;4.60;;
22357;SDS011;11346;50.150;8.150;2022-07-29T14:53:22;7.17;;;4.67;;
22357;SDS011;11346;50.150;8.150;2022-07-29T14:55:49;21.87;;;17.47;;
22357;SDS011;11346;50.150;8.150;2022-07-29T14:58:16;39.47;;;29.50;;
22357;SDS011;11346;50.150;8.150;2022-07-29T15:00:46;21.87;;;19.43;;
22357;SDS011;11346;50.150;8.150;2022-07-29T15:03:13;6.40;;;5.03;;
22357;SDS011;11346;50.150;8.150;2022-07-29T15:05:40;6.70;;;4.53;;
22357;SDS011;11346;50.150;8.150;2022-07-29T15:08:07;8.43;;;4.03;;
22357;SDS011;11346;50.150;8.150;2022-07-29T15:10:35;4.67;;;4.07;;
22357;SDS011;11346;50.150;8.150;2022-07-29T15:13:02;6.07;;;4.20;;
22357;SDS011;11346;50.150;8.150;2022-07-29T15:18:14;6.17;;;4.67;;
22357;SDS011;11346;50.150;8.150;2022-07-29T15:20:41;5.57;;;4.37;;